createdAt,value
2018-03-07T00:00:27.554Z,30.40
2018-03-07T00:01:32.029Z,31.70
2018-03-07T00:02:36.473Z,33.20
2018-03-07T00:03:40.929Z,31.70
2018-03-07T00:04:45.369Z,31.37
2018-03-07T00:05:50.592Z,30.42
2018-03-07T00:06:55.091Z,31.70
2018-03-07T00:07:59.535Z,31.60
2018-03-07T00:09:03.958Z,30.25
2018-03-07T00:10:08.407Z,31.25
2018-03-07T00:11:12.869Z,30.88
2018-03-07T00:12:18.110Z,31.17
2018-03-07T00:13:22.585Z,31.20
2018-03-07T00:14:27.038Z,31.85
2018-03-07T00:15:31.489Z,31.65
2018-03-07T00:16:35.936Z,31.33
2018-03-07T00:17:41.247Z,31.27
2018-03-07T00:18:45.685Z,31.05
2018-03-07T00:19:50.896Z,30.48
2018-03-07T00:20:55.349Z,30.12
2018-03-07T00:21:59.802Z,31.62
2018-03-07T00:23:04.265Z,30.88
2018-03-07T00:24:08.711Z,30.73
2018-03-07T00:25:13.169Z,30.67
2018-03-07T00:26:17.629Z,31.42
2018-03-07T00:27:22.075Z,30.75
2018-03-07T00:28:26.537Z,31.42
2018-03-07T00:29:30.983Z,31.67
2018-03-07T00:30:35.426Z,29.50
2018-03-07T00:31:39.878Z,31.08
2018-03-07T00:32:44.333Z,30.05
2018-03-07T00:33:49.581Z,30.88
2018-03-07T00:34:54.212Z,28.80
2018-03-07T00:35:58.449Z,31.27
2018-03-07T00:37:02.901Z,31.33
2018-03-07T00:38:08.102Z,31.33
2018-03-07T00:39:12.599Z,33.30
2018-03-07T00:40:17.052Z,33.45
2018-03-07T00:41:22.263Z,33.15
2018-03-07T00:42:27.478Z,32.45
2018-03-07T00:43:31.941Z,34.03
2018-03-07T00:44:36.401Z,32.15
2018-03-07T00:45:40.854Z,33.83
2018-03-07T00:46:45.303Z,33.25
2018-03-07T00:47:49.750Z,34.42
2018-03-07T00:48:54.969Z,32.38
2018-03-07T00:49:59.420Z,35.22
2018-03-07T00:51:03.864Z,33.30
2018-03-07T00:52:08.327Z,33.97
2018-03-07T00:53:13.553Z,33.10
2018-03-07T00:54:18.765Z,34.47
2018-03-07T00:55:23.214Z,33.58
2018-03-07T00:56:27.678Z,32.88
2018-03-07T00:57:32.112Z,32.42
2018-03-07T00:58:37.323Z,32.80
2018-03-07T00:59:41.771Z,32.65
2018-03-07T01:00:46.234Z,32.97
2018-03-07T01:01:50.845Z,34.05
2018-03-07T01:02:55.289Z,32.90
2018-03-07T01:04:00.503Z,33.75
2018-03-07T01:05:04.958Z,32.00
2018-03-07T01:06:09.446Z,33.95
2018-03-07T01:07:14.685Z,34.25
2018-03-07T01:08:19.135Z,34.60
2018-03-07T01:09:23.589Z,34.22
2018-03-07T01:10:28.845Z,33.33
2018-03-07T01:11:33.326Z,33.92
2018-03-07T01:12:37.765Z,33.20
2018-03-07T01:13:42.217Z,32.92
2018-03-07T01:14:46.666Z,33.28
2018-03-07T01:15:51.118Z,32.92
2018-03-07T01:16:55.594Z,32.65
2018-03-07T01:18:00.807Z,33.92
2018-03-07T01:19:06.146Z,33.90
2018-03-07T01:20:10.585Z,31.70
2018-03-07T01:21:15.034Z,32.40
2018-03-07T01:22:19.494Z,30.75
2018-03-07T01:23:23.949Z,31.87
2018-03-07T01:24:28.400Z,33.13
2018-03-07T01:25:32.519Z,36.53
2018-03-07T01:26:36.970Z,31.90
2018-03-07T01:27:41.442Z,31.58
2018-03-07T01:28:45.894Z,30.85
2018-03-07T01:29:50.350Z,32.63
2018-03-07T01:30:55.565Z,31.30
2018-03-07T01:32:00.009Z,30.17
2018-03-07T01:33:04.474Z,30.33
2018-03-07T01:34:08.926Z,32.08
2018-03-07T01:35:13.374Z,30.33
2018-03-07T01:36:17.821Z,31.12
2018-03-07T01:37:23.037Z,29.98
2018-03-07T01:38:29.017Z,32.33
2018-03-07T01:39:34.221Z,30.48
2018-03-07T01:40:39.485Z,30.48
2018-03-07T01:41:44.712Z,32.15
2018-03-07T01:42:49.938Z,29.10
2018-03-07T01:43:54.406Z,31.27
2018-03-07T01:44:58.872Z,30.17
2018-03-07T01:46:03.333Z,29.45
2018-03-07T01:47:07.787Z,29.48
2018-03-07T01:48:12.247Z,29.40
2018-03-07T01:49:16.756Z,29.45
2018-03-07T01:50:20.862Z,30.70
2018-03-07T01:52:55.378Z,27.67
2018-03-07T01:53:59.822Z,29.37
2018-03-07T01:55:04.734Z,30.37
2018-03-07T01:56:09.225Z,28.08
2018-03-07T01:57:13.662Z,30.05
2018-03-07T01:58:18.158Z,28.87
2018-03-07T01:59:22.409Z,28.15
2018-03-07T02:00:26.869Z,28.08
2018-03-07T02:01:31.313Z,26.45
2018-03-07T02:02:36.513Z,29.50
2018-03-07T02:03:40.973Z,28.02
2018-03-07T02:04:45.426Z,28.55
2018-03-07T02:05:49.889Z,29.65
2018-03-07T02:06:54.329Z,27.40
2018-03-07T02:07:58.766Z,28.58
2018-03-07T02:09:02.869Z,28.40
2018-03-07T02:10:07.310Z,29.23
2018-03-07T02:11:12.673Z,28.08
2018-03-07T02:12:17.127Z,28.52
2018-03-07T02:13:21.594Z,28.55
2018-03-07T02:14:26.065Z,30.30
2018-03-07T02:15:30.512Z,28.17
2018-03-07T02:16:34.970Z,28.83
2018-03-07T02:17:39.418Z,29.23
2018-03-07T02:18:44.629Z,28.38
2018-03-07T02:19:49.849Z,28.00
2018-03-07T02:20:55.069Z,29.95
2018-03-07T02:21:59.528Z,27.35
2018-03-07T02:23:03.998Z,28.38
2018-03-07T02:24:08.468Z,28.30
2018-03-07T02:25:12.911Z,27.50
2018-03-07T02:26:17.445Z,27.70
2018-03-07T02:27:21.908Z,27.95
2018-03-07T02:28:26.354Z,27.37
2018-03-07T02:29:30.789Z,27.45
2018-03-07T02:30:35.995Z,25.85
2018-03-07T02:31:40.679Z,27.27
2018-03-07T02:32:45.179Z,28.10
2018-03-07T02:33:49.815Z,25.42
2018-03-07T02:34:54.274Z,27.27
2018-03-07T02:35:59.473Z,26.50
2018-03-07T02:37:03.910Z,26.50
2018-03-07T02:38:09.153Z,27.75
2018-03-07T02:39:13.604Z,26.85
2018-03-07T02:40:18.038Z,26.62
2018-03-07T02:41:23.277Z,25.98
2018-03-07T02:42:27.709Z,27.60
2018-03-07T02:43:32.185Z,26.55
2018-03-07T02:44:36.680Z,27.10
2018-03-07T02:45:41.152Z,27.85
2018-03-07T02:46:45.591Z,26.92
2018-03-07T02:47:50.038Z,26.23
2018-03-07T02:48:54.493Z,26.08
2018-03-07T02:49:58.970Z,25.77
2018-03-07T02:51:04.179Z,26.85
2018-03-07T02:52:09.398Z,27.77
2018-03-07T02:53:13.851Z,27.60
2018-03-07T02:54:19.089Z,27.83
2018-03-07T02:55:23.545Z,28.00
2018-03-07T02:56:28.014Z,26.90
2018-03-07T02:57:32.454Z,27.87
2018-03-07T02:58:36.898Z,25.60
2018-03-07T02:59:41.363Z,26.12
2018-03-07T03:00:45.827Z,27.45
2018-03-07T03:01:51.049Z,26.85
2018-03-07T03:02:55.512Z,26.85
2018-03-07T03:03:59.951Z,27.10
2018-03-07T03:05:03.771Z,26.75
2018-03-07T03:06:08.208Z,25.83
2018-03-07T03:07:12.669Z,25.12
2018-03-07T03:08:17.122Z,24.95
2018-03-07T03:09:22.334Z,25.95
2018-03-07T03:10:26.825Z,27.05
2018-03-07T03:11:31.305Z,25.55
2018-03-07T03:12:35.965Z,25.30
2018-03-07T03:13:40.557Z,25.10
2018-03-07T03:14:45.013Z,25.12
2018-03-07T03:15:50.251Z,25.20
2018-03-07T03:16:54.689Z,26.95
2018-03-07T03:17:59.138Z,24.95
2018-03-07T03:19:03.587Z,26.45
2018-03-07T03:20:08.045Z,25.12
2018-03-07T03:21:12.501Z,26.25
2018-03-07T03:22:17.719Z,26.17
2018-03-07T03:23:22.937Z,25.50
2018-03-07T03:24:27.374Z,26.15
2018-03-07T03:25:31.618Z,26.62
2018-03-07T03:26:36.094Z,25.02
2018-03-07T03:27:40.360Z,25.55
2018-03-07T03:28:44.814Z,25.65
2018-03-07T03:29:49.254Z,25.58
2018-03-07T03:30:53.738Z,24.58
2018-03-07T03:31:58.202Z,26.42
2018-03-07T03:33:02.662Z,25.95
2018-03-07T03:34:07.106Z,27.42
2018-03-07T03:35:11.547Z,26.12
2018-03-07T03:36:15.337Z,23.77
2018-03-07T03:37:19.798Z,26.00
2018-03-07T03:38:24.234Z,25.67
2018-03-07T03:39:28.678Z,25.98
2018-03-07T03:40:33.130Z,26.92
2018-03-07T03:41:37.574Z,26.30
2018-03-07T03:42:42.043Z,25.25
2018-03-07T03:43:46.629Z,26.33
2018-03-07T03:44:51.076Z,26.12
2018-03-07T03:45:55.522Z,26.48
2018-03-07T03:47:00.032Z,27.60
2018-03-07T03:48:05.260Z,26.70
2018-03-07T03:49:09.705Z,27.13
2018-03-07T03:50:14.929Z,27.95
2018-03-07T03:51:19.370Z,25.52
2018-03-07T03:52:23.806Z,27.10
2018-03-07T03:53:28.263Z,28.30
2018-03-07T03:54:33.469Z,27.58
2018-03-07T03:55:37.901Z,25.83
2018-03-07T03:56:43.106Z,27.00
2018-03-07T03:57:47.612Z,27.27
2018-03-07T03:58:52.078Z,26.58
2018-03-07T03:59:56.521Z,26.95
2018-03-07T04:01:00.978Z,27.30
2018-03-07T04:02:06.218Z,26.73
2018-03-07T04:03:11.437Z,27.00
2018-03-07T04:04:16.684Z,27.80
2018-03-07T04:05:21.903Z,28.55
2018-03-07T04:06:27.118Z,26.58
2018-03-07T04:07:31.582Z,26.58
2018-03-07T04:08:36.023Z,26.62
2018-03-07T04:09:40.489Z,27.85
2018-03-07T04:10:44.943Z,29.30
2018-03-07T04:11:49.382Z,28.45
2018-03-07T04:12:54.589Z,28.20
2018-03-07T04:13:59.046Z,27.52
2018-03-07T04:15:04.277Z,26.05
2018-03-07T04:16:08.721Z,26.83
2018-03-07T04:17:13.224Z,29.55
2018-03-07T04:18:17.679Z,27.50
2018-03-07T04:19:22.138Z,28.17
2018-03-07T04:20:26.597Z,28.00
2018-03-07T04:21:31.035Z,28.75
2018-03-07T04:22:35.486Z,27.58
2018-03-07T04:23:39.926Z,28.98
2018-03-07T04:24:44.387Z,27.90
2018-03-07T04:25:48.853Z,28.27
2018-03-07T04:26:53.335Z,28.12
2018-03-07T04:27:57.761Z,28.45
2018-03-07T04:29:02.206Z,27.48
2018-03-07T04:30:07.412Z,25.98
2018-03-07T04:31:11.879Z,28.42
2018-03-07T04:32:16.313Z,27.35
2018-03-07T04:33:20.763Z,28.00
2018-03-07T04:34:26.005Z,28.20
2018-03-07T04:35:30.628Z,27.17
2018-03-07T04:36:35.178Z,28.42
2018-03-07T04:37:39.614Z,28.33
2018-03-07T04:38:44.830Z,29.87
2018-03-07T04:39:50.058Z,27.75
2018-03-07T04:40:54.490Z,29.48
2018-03-07T04:41:59.722Z,30.30
2018-03-07T04:43:04.937Z,31.20
2018-03-07T04:44:09.384Z,28.75
2018-03-07T04:45:13.825Z,28.52
2018-03-07T04:46:18.342Z,29.65
2018-03-07T04:47:22.810Z,28.65
2018-03-07T04:48:27.246Z,27.52
2018-03-07T04:49:31.691Z,27.90
2018-03-07T04:50:36.145Z,27.73
2018-03-07T04:51:40.577Z,29.55
2018-03-07T04:52:45.819Z,29.35
2018-03-07T04:53:50.262Z,27.60
2018-03-07T04:54:54.701Z,31.65
2018-03-07T04:55:59.146Z,28.65
2018-03-07T04:57:03.598Z,29.85
2018-03-07T04:58:09.894Z,29.23
2018-03-07T04:59:14.325Z,29.55
2018-03-07T05:00:18.778Z,30.70
2018-03-07T05:01:23.991Z,28.95
2018-03-07T05:02:28.438Z,31.15
2018-03-07T05:03:32.913Z,29.48
2018-03-07T05:04:37.368Z,31.23
2018-03-07T05:05:41.823Z,29.35
2018-03-07T05:06:46.270Z,32.10
2018-03-07T05:07:51.495Z,30.80
2018-03-07T05:08:56.736Z,30.65
2018-03-07T05:10:01.211Z,32.75
2018-03-07T05:11:05.654Z,30.02
2018-03-07T05:12:10.110Z,30.02
2018-03-07T05:13:14.572Z,29.92
2018-03-07T05:14:20.003Z,31.70
2018-03-07T05:15:25.215Z,31.87
2018-03-07T05:16:29.655Z,29.83
2018-03-07T05:17:34.107Z,31.30
2018-03-07T05:18:38.562Z,30.98
2018-03-07T05:19:43.803Z,31.23
2018-03-07T05:20:48.506Z,32.08
2018-03-07T05:21:54.070Z,31.05
2018-03-07T05:22:58.514Z,31.10
2018-03-07T05:24:02.953Z,31.42
2018-03-07T05:25:07.422Z,32.88
2018-03-07T05:26:11.874Z,30.58
2018-03-07T05:27:16.320Z,30.50
2018-03-07T05:28:20.792Z,29.55
2018-03-07T05:29:25.244Z,30.52
2018-03-07T05:30:29.710Z,31.05
2018-03-07T05:31:34.943Z,30.45
2018-03-07T05:32:39.386Z,29.83
2018-03-07T05:33:43.837Z,29.98
2018-03-07T05:34:48.282Z,30.62
2018-03-07T05:35:52.757Z,29.85
2018-03-07T05:36:58.854Z,30.75
2018-03-07T05:38:04.088Z,32.85
2018-03-07T05:39:08.568Z,30.35
2018-03-07T05:40:13.010Z,30.50
2018-03-07T05:41:18.253Z,30.20
2018-03-07T05:42:22.711Z,31.77
2018-03-07T05:43:27.155Z,30.98
2018-03-07T05:44:32.364Z,28.80
2018-03-07T05:45:36.808Z,33.05
2018-03-07T05:46:41.274Z,31.00
2018-03-07T05:47:45.785Z,31.17
2018-03-07T05:48:50.214Z,32.88
2018-03-07T05:49:54.674Z,31.27
2018-03-07T05:50:59.129Z,32.03
2018-03-07T05:52:03.591Z,31.83
2018-03-07T05:53:08.036Z,35.70
2018-03-07T05:54:12.506Z,34.40
2018-03-07T05:55:16.946Z,34.72
2018-03-07T05:56:21.450Z,35.15
2018-03-07T05:57:25.990Z,35.75
2018-03-07T05:58:30.428Z,34.80
2018-03-07T05:59:34.615Z,39.57
2018-03-07T06:00:39.065Z,36.85
2018-03-07T06:01:43.514Z,37.45
2018-03-07T06:02:48.043Z,36.83
2018-03-07T06:03:52.482Z,37.92
2018-03-07T06:04:56.961Z,36.03
2018-03-07T06:06:01.461Z,33.65
2018-03-07T06:07:06.038Z,34.03
2018-03-07T06:08:11.291Z,35.78
2018-03-07T06:09:16.531Z,37.05
2018-03-07T06:10:21.325Z,37.47
2018-03-07T06:11:25.821Z,36.42
2018-03-07T06:12:31.040Z,38.15
2018-03-07T06:13:36.285Z,37.85
2018-03-07T06:14:40.730Z,36.83
2018-03-07T06:15:45.178Z,36.78
2018-03-07T06:16:49.633Z,37.85
2018-03-07T06:17:54.086Z,37.85
2018-03-07T06:18:58.550Z,37.53
2018-03-07T06:20:03.032Z,39.00
2018-03-07T06:21:08.250Z,42.30
2018-03-07T06:22:12.697Z,40.50
2018-03-07T06:23:18.053Z,40.47
2018-03-07T06:24:22.512Z,38.67
2018-03-07T06:25:27.732Z,41.05
2018-03-07T06:26:32.199Z,38.50
2018-03-07T06:27:36.649Z,37.83
2018-03-07T06:28:40.891Z,43.30
2018-03-07T06:29:47.310Z,41.10
2018-03-07T06:30:52.978Z,39.33
2018-03-07T06:31:57.976Z,38.97
2018-03-07T06:33:02.441Z,39.20
2018-03-07T06:34:06.917Z,39.15
2018-03-07T06:35:11.574Z,40.45
2018-03-07T06:36:16.037Z,38.97
2018-03-07T06:37:21.263Z,38.22
2018-03-07T06:38:26.481Z,38.97
2018-03-07T06:39:30.946Z,37.30
2018-03-07T06:40:35.418Z,39.88
2018-03-07T06:41:40.308Z,41.37
2018-03-07T06:42:44.764Z,39.75
2018-03-07T06:43:49.993Z,39.17
2018-03-07T06:44:54.272Z,39.50
2018-03-07T06:45:58.750Z,39.03
2018-03-07T06:47:03.207Z,39.88
2018-03-07T06:48:08.511Z,39.10
2018-03-07T06:49:12.967Z,39.65
2018-03-07T06:50:17.425Z,40.78
2018-03-07T06:51:21.889Z,38.20
2018-03-07T06:52:26.343Z,39.65
2018-03-07T06:53:30.802Z,39.88
2018-03-07T06:54:36.017Z,39.20
2018-03-07T06:55:40.493Z,38.25
2018-03-07T06:56:45.020Z,37.90
2018-03-07T06:57:49.467Z,37.20
2018-03-07T06:58:54.710Z,36.88
2018-03-07T06:59:59.149Z,37.67
2018-03-07T07:01:03.613Z,38.83
2018-03-07T07:02:08.851Z,40.33
2018-03-07T07:03:13.088Z,37.63
2018-03-07T07:04:17.394Z,39.45
2018-03-07T07:05:21.938Z,40.38
2018-03-07T07:06:26.398Z,38.90
2018-03-07T07:07:30.868Z,38.83
2018-03-07T07:08:35.321Z,38.75
2018-03-07T07:09:39.760Z,40.45
2018-03-07T07:10:44.285Z,40.65
2018-03-07T07:11:48.747Z,38.72
2018-03-07T07:12:54.002Z,39.40
2018-03-07T07:13:58.454Z,39.80
2018-03-07T07:15:02.963Z,40.92
2018-03-07T07:16:08.177Z,41.50
2018-03-07T07:17:12.644Z,38.45
2018-03-07T07:18:17.883Z,41.15
2018-03-07T07:19:22.326Z,41.17
2018-03-07T07:20:26.805Z,39.90
2018-03-07T07:21:31.266Z,40.80
2018-03-07T07:22:35.734Z,41.30
2018-03-07T07:23:40.201Z,43.30
2018-03-07T07:24:45.614Z,39.85
2018-03-07T07:25:50.066Z,40.88
2018-03-07T07:26:55.296Z,38.92
2018-03-07T07:27:59.754Z,38.85
2018-03-07T07:29:04.226Z,39.38
2018-03-07T07:30:08.491Z,41.30
2018-03-07T07:31:12.935Z,40.53
2018-03-07T07:32:18.156Z,42.85
2018-03-07T07:33:23.368Z,41.00
2018-03-07T07:34:28.602Z,39.65
2018-03-07T07:35:33.055Z,41.58
2018-03-07T07:36:37.505Z,41.10
2018-03-07T07:37:41.957Z,40.95
2018-03-07T07:38:46.443Z,42.10
2018-03-07T07:39:50.918Z,41.28
2018-03-07T07:40:55.369Z,40.97
2018-03-07T07:41:59.826Z,41.20
2018-03-07T07:43:04.294Z,41.47
2018-03-07T07:44:09.509Z,40.55
2018-03-07T07:45:13.990Z,40.60
2018-03-07T07:46:18.451Z,42.33
2018-03-07T07:47:23.712Z,40.12
2018-03-07T07:48:29.110Z,42.25
2018-03-07T07:49:33.360Z,41.58
2018-03-07T07:50:37.701Z,43.03
2018-03-07T07:51:41.953Z,44.15
2018-03-07T07:52:46.225Z,40.65
2018-03-07T07:53:51.442Z,41.35
2018-03-07T07:54:55.901Z,40.67
2018-03-07T07:56:00.192Z,40.80
2018-03-07T07:57:05.411Z,37.17
2018-03-07T07:58:10.637Z,41.45
2018-03-07T07:59:15.077Z,42.08
2018-03-07T08:00:19.535Z,43.87
2018-03-07T08:01:24.051Z,43.28
2018-03-07T08:02:28.501Z,42.15
2018-03-07T08:03:33.713Z,40.83
2018-03-07T08:04:38.939Z,41.80
2018-03-07T08:05:43.398Z,40.55
2018-03-07T08:06:47.874Z,42.45
2018-03-07T08:07:53.099Z,43.28
2018-03-07T08:08:58.320Z,41.20
2018-03-07T08:10:02.811Z,42.97
2018-03-07T08:11:07.586Z,41.58
2018-03-07T08:12:12.046Z,41.53
2018-03-07T08:13:16.556Z,42.90
2018-03-07T08:14:20.990Z,42.80
2018-03-07T08:15:25.429Z,42.40
2018-03-07T08:16:29.872Z,43.80
2018-03-07T08:17:34.334Z,41.30
2018-03-07T08:18:39.205Z,42.78
2018-03-07T08:19:43.666Z,44.75
2018-03-07T08:20:48.960Z,39.58
2018-03-07T08:21:53.406Z,41.72
2018-03-07T08:22:58.633Z,42.65
2018-03-07T08:24:03.525Z,42.90
2018-03-07T08:25:08.027Z,41.75
2018-03-07T08:26:12.483Z,43.05
2018-03-07T08:27:17.695Z,42.92
2018-03-07T08:28:22.173Z,41.45
2018-03-07T08:29:26.638Z,40.70
2018-03-07T08:30:31.972Z,39.97
2018-03-07T08:31:37.306Z,38.72
2018-03-07T08:32:41.757Z,37.65
2018-03-07T08:33:46.046Z,39.70
2018-03-07T08:34:50.171Z,37.38
2018-03-07T08:35:54.617Z,37.65
2018-03-07T08:36:59.826Z,35.88
2018-03-07T08:38:04.841Z,36.53
2018-03-07T08:39:09.299Z,36.90
2018-03-07T08:40:14.517Z,36.30
2018-03-07T08:41:19.543Z,38.53
2018-03-07T08:42:24.758Z,36.55
2018-03-07T08:43:29.978Z,39.63
2018-03-07T08:44:34.459Z,36.75
2018-03-07T08:45:38.580Z,37.63
2018-03-07T08:46:43.058Z,37.08
2018-03-07T08:47:47.506Z,38.35
2018-03-07T08:48:51.953Z,38.13
2018-03-07T08:49:57.197Z,43.08
2018-03-07T08:51:01.671Z,37.55
2018-03-07T08:52:07.619Z,37.95
2018-03-07T08:53:12.053Z,37.63
2018-03-07T08:54:16.557Z,38.45
2018-03-07T08:55:21.822Z,39.88
2018-03-07T08:56:26.271Z,37.88
2018-03-07T08:57:30.723Z,38.40
2018-03-07T08:58:35.169Z,37.28
2018-03-07T08:59:39.606Z,36.83
2018-03-07T09:00:44.110Z,36.45
2018-03-07T09:01:48.586Z,37.83
2018-03-07T09:02:53.042Z,37.35
2018-03-07T09:03:57.504Z,36.15
2018-03-07T09:05:01.951Z,36.88
2018-03-07T09:06:06.432Z,38.55
2018-03-07T09:07:10.909Z,37.88
2018-03-07T09:08:16.150Z,37.70
2018-03-07T09:09:21.362Z,38.35
2018-03-07T09:10:26.578Z,38.25
2018-03-07T09:11:31.041Z,39.83
2018-03-07T09:12:35.518Z,39.70
2018-03-07T09:13:40.731Z,39.50
2018-03-07T09:14:45.958Z,39.90
2018-03-07T09:15:50.412Z,38.40
2018-03-07T09:16:54.914Z,38.58
2018-03-07T09:17:59.361Z,38.63
2018-03-07T09:19:03.811Z,39.60
2018-03-07T09:20:08.274Z,42.05
2018-03-07T09:21:12.731Z,39.05
2018-03-07T09:22:17.198Z,39.85
2018-03-07T09:23:21.656Z,43.15
2018-03-07T09:24:26.103Z,44.03
2018-03-07T09:25:30.579Z,42.95
2018-03-07T09:26:35.017Z,43.65
2018-03-07T09:27:39.490Z,42.80
2018-03-07T09:28:44.732Z,42.80
2018-03-07T09:29:49.182Z,45.90
2018-03-07T09:30:53.641Z,43.55
2018-03-07T09:31:59.223Z,44.58
2018-03-07T09:33:03.683Z,46.13
2018-03-07T09:34:08.138Z,44.67
2018-03-07T09:35:12.600Z,45.47
2018-03-07T09:36:16.722Z,44.53
2018-03-07T09:37:21.951Z,45.85
2018-03-07T09:38:26.453Z,46.88
2018-03-07T09:39:30.951Z,45.80
2018-03-07T09:40:35.459Z,46.80
2018-03-07T09:41:39.956Z,45.85
2018-03-07T09:42:44.412Z,46.35
2018-03-07T09:43:48.940Z,45.50
2018-03-07T09:44:53.414Z,47.55
2018-03-07T09:45:57.878Z,45.17
2018-03-07T09:47:02.325Z,44.88
2018-03-07T09:48:06.773Z,46.50
2018-03-07T09:49:12.023Z,50.22
2018-03-07T09:50:16.486Z,48.67
2018-03-07T09:51:20.935Z,46.85
2018-03-07T09:52:26.167Z,49.70
2018-03-07T09:53:31.401Z,49.28
2018-03-07T09:54:35.882Z,47.78
2018-03-07T09:55:40.375Z,46.65
2018-03-07T09:56:44.857Z,48.40
2018-03-07T09:57:49.317Z,48.83
2018-03-07T09:58:53.782Z,47.85
2018-03-07T09:59:58.257Z,52.05
2018-03-07T10:01:02.718Z,49.65
2018-03-07T10:02:07.207Z,51.10
2018-03-07T10:03:12.630Z,50.25
2018-03-07T10:04:17.860Z,52.10
2018-03-07T10:05:22.336Z,49.85
2018-03-07T10:06:27.553Z,49.28
2018-03-07T10:07:32.004Z,51.03
2018-03-07T10:08:37.232Z,50.30
2018-03-07T10:09:42.456Z,50.00
2018-03-07T10:10:47.710Z,49.55
2018-03-07T10:11:52.159Z,51.88
2018-03-07T10:12:56.623Z,49.88
2018-03-07T10:14:01.093Z,52.10
2018-03-07T10:15:05.531Z,55.35
2018-03-07T10:16:10.761Z,55.47
2018-03-07T10:17:15.994Z,55.42
2018-03-07T10:18:20.531Z,54.88
2018-03-07T10:19:24.990Z,53.63
2018-03-07T10:20:29.442Z,56.60
2018-03-07T10:21:34.686Z,57.62
2018-03-07T10:22:39.147Z,56.22
2018-03-07T10:23:43.628Z,56.83
2018-03-07T10:24:48.095Z,57.38
2018-03-07T10:25:52.558Z,56.78
2018-03-07T10:26:57.130Z,59.80
2018-03-07T10:28:01.577Z,59.60
2018-03-07T10:29:06.043Z,58.50
2018-03-07T10:30:10.505Z,58.40
2018-03-07T10:31:14.989Z,60.22
2018-03-07T10:32:19.481Z,62.03
2018-03-07T10:33:26.689Z,60.88
2018-03-07T10:34:31.134Z,59.35
2018-03-07T10:35:36.169Z,61.75
2018-03-07T10:36:41.418Z,60.53
2018-03-07T10:37:45.984Z,59.45
2018-03-07T10:38:50.421Z,62.28
2018-03-07T10:39:55.647Z,61.47
2018-03-07T10:41:00.877Z,62.67
2018-03-07T10:42:06.136Z,63.90
2018-03-07T10:43:10.617Z,62.00
2018-03-07T10:44:15.932Z,62.65
2018-03-07T10:45:20.399Z,60.80
2018-03-07T10:46:24.866Z,63.45
2018-03-07T10:47:30.164Z,65.45
2018-03-07T10:48:34.636Z,64.40
2018-03-07T10:49:39.134Z,62.75
2018-03-07T10:50:44.382Z,64.85
2018-03-07T10:51:48.854Z,64.57
2018-03-07T10:52:54.968Z,62.62
2018-03-07T10:53:59.482Z,61.10
2018-03-07T10:55:03.966Z,63.80
2018-03-07T10:56:08.426Z,64.05
2018-03-07T10:57:12.908Z,65.03
2018-03-07T10:58:17.397Z,63.60
2018-03-07T10:59:21.934Z,64.90
2018-03-07T11:00:31.968Z,65.62
2018-03-07T11:01:36.432Z,62.70
2018-03-07T11:02:40.916Z,60.15
2018-03-07T11:03:45.383Z,62.42
2018-03-07T11:04:49.915Z,64.62
2018-03-07T11:05:54.389Z,66.35
2018-03-07T11:06:59.639Z,66.97
2018-03-07T11:08:04.401Z,63.25
2018-03-07T11:09:08.889Z,64.62
2018-03-07T11:10:13.390Z,64.70
2018-03-07T11:11:17.868Z,65.18
2018-03-07T11:12:22.378Z,64.85
2018-03-07T11:13:27.627Z,65.60
2018-03-07T11:14:32.870Z,66.07
2018-03-07T11:15:38.306Z,67.07
2018-03-07T11:16:42.788Z,67.65
2018-03-07T11:17:48.026Z,65.57
2018-03-07T11:18:52.504Z,68.15
2018-03-07T11:19:56.978Z,67.35
2018-03-07T11:21:01.497Z,67.00
2018-03-07T11:22:05.966Z,67.85
2018-03-07T11:23:10.435Z,71.62
2018-03-07T11:24:14.914Z,69.60
2018-03-07T11:25:19.847Z,69.15
2018-03-07T11:26:24.319Z,63.72
2018-03-07T11:27:29.324Z,67.15
2018-03-07T11:28:33.835Z,66.22
2018-03-07T11:29:38.485Z,66.97
2018-03-07T11:30:42.945Z,66.90
2018-03-07T11:31:47.472Z,70.03
2018-03-07T11:32:51.942Z,67.70
2018-03-07T11:33:56.414Z,68.70
2018-03-07T11:35:01.646Z,70.25
2018-03-07T11:36:06.914Z,71.20
2018-03-07T11:37:11.423Z,70.97
2018-03-07T11:38:15.904Z,70.78
2018-03-07T11:39:21.128Z,71.32
2018-03-07T11:40:26.374Z,67.72
2018-03-07T11:41:30.842Z,68.53
2018-03-07T11:42:35.317Z,68.68
2018-03-07T11:43:39.662Z,70.03
2018-03-07T11:44:44.123Z,67.60
2018-03-07T11:45:48.896Z,69.43
2018-03-07T11:46:53.354Z,69.30
2018-03-07T11:47:57.837Z,64.22
2018-03-07T11:49:03.062Z,72.18
2018-03-07T11:50:07.559Z,66.22
2018-03-07T11:51:12.039Z,68.40
2018-03-07T11:52:16.525Z,65.12
2018-03-07T11:53:21.010Z,66.62
2018-03-07T11:54:25.505Z,70.50
2018-03-07T11:55:30.016Z,65.57
2018-03-07T11:56:34.509Z,66.10
2018-03-07T11:57:38.969Z,66.00
2018-03-07T11:58:44.081Z,66.10
2018-03-07T11:59:48.561Z,67.20
2018-03-07T12:00:53.020Z,63.78
2018-03-07T12:01:58.245Z,66.75
2018-03-07T12:03:03.477Z,66.03
2018-03-07T12:04:08.742Z,68.68
2018-03-07T12:05:13.214Z,63.85
2018-03-07T12:06:18.468Z,62.38
2018-03-07T12:07:22.921Z,67.72
2018-03-07T12:08:27.410Z,66.35
2018-03-07T12:09:31.875Z,63.20
2018-03-07T12:10:37.106Z,65.60
2018-03-07T12:11:42.353Z,65.28
2018-03-07T12:12:46.849Z,70.18
2018-03-07T12:13:51.306Z,68.68
2018-03-07T12:14:55.798Z,71.15
2018-03-07T12:16:00.254Z,64.45
2018-03-07T12:17:04.407Z,66.18
2018-03-07T12:18:08.940Z,69.65
2018-03-07T12:19:13.993Z,64.47
2018-03-07T12:20:19.401Z,67.35
2018-03-07T12:21:23.851Z,65.72
2018-03-07T12:22:28.323Z,67.80
2018-03-07T12:23:32.783Z,70.50
2018-03-07T12:24:38.064Z,67.82
2018-03-07T12:25:42.547Z,70.00
2018-03-07T12:26:47.036Z,70.53
2018-03-07T12:27:51.513Z,70.93
2018-03-07T12:28:55.963Z,70.65
2018-03-07T12:30:01.207Z,72.35
2018-03-07T12:31:06.485Z,69.50
2018-03-07T12:32:10.949Z,69.72
2018-03-07T12:33:16.198Z,67.78
2018-03-07T12:34:20.709Z,65.00
2018-03-07T12:35:25.208Z,69.70
2018-03-07T12:36:29.699Z,67.75
2018-03-07T12:37:34.938Z,66.53
2018-03-07T12:38:40.174Z,68.05
2018-03-07T12:39:44.643Z,66.35
2018-03-07T12:40:49.097Z,68.35
2018-03-07T12:41:54.466Z,64.07
2018-03-07T12:42:58.926Z,65.00
2018-03-07T12:44:04.520Z,66.40
2018-03-07T12:45:09.015Z,68.15
2018-03-07T12:46:13.531Z,68.97
2018-03-07T12:47:18.022Z,69.00
2018-03-07T12:48:22.482Z,66.60
2018-03-07T12:49:26.971Z,68.15
2018-03-07T12:50:31.460Z,66.10
2018-03-07T12:51:37.045Z,66.80
2018-03-07T12:52:42.122Z,68.87
2018-03-07T12:53:46.590Z,67.45
2018-03-07T12:54:51.049Z,68.37
2018-03-07T12:55:55.852Z,69.87
2018-03-07T12:57:00.334Z,67.20
2018-03-07T12:58:05.317Z,72.15
2018-03-07T12:59:09.794Z,67.70
2018-03-07T13:00:15.044Z,69.72
2018-03-07T13:01:19.702Z,72.32
2018-03-07T13:02:25.078Z,69.20
2018-03-07T13:03:29.649Z,78.68
2018-03-07T13:04:34.298Z,74.20
2018-03-07T13:05:38.766Z,68.90
2018-03-07T13:06:43.257Z,67.87
2018-03-07T13:07:47.726Z,73.82
2018-03-07T13:08:52.421Z,73.70
2018-03-07T13:09:58.622Z,75.82
2018-03-07T13:11:03.098Z,69.40
2018-03-07T13:12:07.797Z,70.57
2018-03-07T13:13:12.960Z,74.25
2018-03-07T13:14:18.356Z,74.00
2018-03-07T13:15:22.971Z,76.28
2018-03-07T13:16:27.498Z,69.30
2018-03-07T13:17:33.328Z,70.80
2018-03-07T13:18:38.584Z,69.18
2018-03-07T13:19:43.834Z,75.28
2018-03-07T13:20:48.400Z,70.47
2018-03-07T13:21:53.039Z,72.00
2018-03-07T13:22:58.288Z,68.25
2018-03-07T13:24:03.779Z,72.70
2018-03-07T13:25:08.395Z,72.28
2018-03-07T13:26:13.115Z,79.90
2018-03-07T13:27:17.598Z,72.40
2018-03-07T13:28:22.079Z,68.87
2018-03-07T13:29:26.544Z,69.60
2018-03-07T13:30:31.033Z,67.93
2018-03-07T13:31:36.094Z,68.93
2018-03-07T13:32:40.576Z,68.55
2018-03-07T13:33:45.057Z,69.70
2018-03-07T13:34:49.545Z,67.75
2018-03-07T13:35:55.068Z,69.55
2018-03-07T13:37:01.172Z,68.15
2018-03-07T13:38:05.638Z,69.53
2018-03-07T13:39:10.957Z,67.70
2018-03-07T13:40:17.103Z,70.68
2018-03-07T13:41:21.659Z,64.50
2018-03-07T13:42:26.429Z,70.25
2018-03-07T13:43:31.803Z,72.80
2018-03-07T13:44:36.283Z,70.28
2018-03-07T13:45:43.163Z,68.75
2018-03-07T13:46:47.666Z,65.93
2018-03-07T13:47:52.140Z,72.68
2018-03-07T13:48:56.645Z,71.15
2018-03-07T13:50:01.180Z,68.80
2018-03-07T13:51:05.327Z,67.07
2018-03-07T13:52:10.575Z,69.45
2018-03-07T13:53:18.021Z,69.55
2018-03-07T13:54:22.554Z,69.68